createdAt,value
2023-04-02T00:01:36.718Z,15.23
2023-04-02T00:04:16.390Z,11.63
2023-04-02T00:06:47.038Z,11.18
2023-04-02T00:09:38.329Z,10.23
2023-04-02T00:12:16.971Z,12.48
2023-04-02T00:14:53.381Z,10.13
2023-04-02T00:17:22.441Z,13.07
2023-04-02T00:19:54.329Z,10.57
2023-04-02T00:22:26.791Z,11.10
2023-04-02T00:24:56.926Z,13.00
2023-04-02T00:27:25.253Z,11.77
2023-04-02T00:29:56.790Z,11.40
2023-04-02T00:32:27.602Z,10.55
2023-04-02T00:34:56.586Z,10.90
2023-04-02T00:37:28.114Z,8.60
2023-04-02T00:40:02.060Z,10.05
2023-04-02T00:42:32.199Z,10.02
2023-04-02T00:45:04.202Z,10.63
2023-04-02T00:47:35.504Z,12.27
2023-04-02T00:50:08.778Z,11.15
2023-04-02T00:52:37.610Z,10.38
2023-04-02T00:55:10.400Z,10.30
2023-04-02T00:57:38.624Z,9.65
2023-04-02T01:00:21.919Z,9.90
2023-04-02T01:03:28.807Z,11.05
2023-04-02T01:06:01.628Z,9.73
2023-04-02T01:08:45.039Z,9.27
2023-04-02T01:11:31.324Z,11.23
2023-04-02T01:14:06.214Z,9.10
2023-04-02T01:16:46.659Z,10.25
2023-04-02T01:19:42.382Z,11.18
2023-04-02T01:22:18.324Z,8.82
2023-04-02T01:24:46.643Z,8.52
2023-04-02T01:27:19.726Z,8.23
2023-04-02T01:29:55.515Z,8.05
2023-04-02T01:32:25.695Z,8.13
2023-04-02T01:34:54.323Z,12.35
2023-04-02T01:37:34.409Z,11.00
2023-04-02T01:40:16.263Z,8.20
2023-04-02T01:42:53.960Z,8.30
2023-04-02T01:45:25.000Z,10.50
2023-04-02T01:47:53.544Z,9.18
2023-04-02T01:50:31.480Z,8.20
2023-04-02T01:53:03.242Z,8.53
2023-04-02T01:55:36.398Z,9.25
2023-04-02T01:58:05.683Z,10.55
2023-04-02T02:00:37.481Z,9.25
2023-04-02T02:03:08.698Z,8.82
2023-04-02T02:05:37.489Z,6.70
2023-04-02T02:08:08.287Z,10.52
2023-04-02T02:10:40.830Z,8.13
2023-04-02T02:13:15.068Z,12.27
2023-04-02T02:15:45.199Z,10.05
2023-04-02T02:18:14.395Z,8.77
2023-04-02T02:20:43.091Z,7.75
2023-04-02T02:23:13.611Z,8.85
2023-04-02T02:25:41.976Z,7.43
2023-04-02T02:28:11.913Z,7.80
2023-04-02T02:30:45.767Z,8.93
2023-04-02T02:33:18.895Z,9.18
2023-04-02T02:35:53.746Z,7.60
2023-04-02T02:38:43.336Z,9.60
2023-04-02T02:41:22.652Z,9.48
2023-04-02T02:44:00.272Z,8.33
2023-04-02T02:46:32.825Z,12.18
2023-04-02T02:49:04.334Z,9.13
2023-04-02T02:51:41.812Z,8.48
2023-04-02T02:54:13.269Z,8.63
2023-04-02T02:56:47.248Z,8.70
2023-04-02T02:59:17.041Z,9.77
2023-04-02T03:01:48.103Z,8.57
2023-04-02T03:04:22.565Z,8.57
2023-04-02T03:06:54.032Z,9.95
2023-04-02T03:09:32.256Z,7.80
2023-04-02T03:12:05.700Z,11.18
2023-04-02T03:14:36.686Z,9.38
2023-04-02T03:17:13.354Z,8.25
2023-04-02T03:19:46.849Z,8.88
2023-04-02T03:22:22.983Z,8.23
2023-04-02T03:24:59.034Z,8.18
2023-04-02T03:27:31.262Z,11.15
2023-04-02T03:30:10.790Z,8.15
2023-04-02T03:32:43.335Z,10.35
2023-04-02T03:35:22.477Z,11.50
2023-04-02T03:37:56.609Z,10.18
2023-04-02T03:40:29.268Z,9.88
2023-04-02T03:43:03.642Z,6.47
2023-04-02T03:45:37.487Z,6.50
2023-04-02T03:48:13.521Z,8.17
2023-04-02T03:50:46.594Z,7.88
2023-04-02T03:53:14.820Z,7.13
2023-04-02T03:55:43.769Z,6.47
2023-04-02T03:58:18.993Z,8.50
2023-04-02T04:00:52.984Z,7.70
2023-04-02T04:03:27.663Z,9.20
2023-04-02T04:06:00.227Z,9.77
2023-04-02T04:08:34.201Z,9.48
2023-04-02T04:11:09.976Z,10.23
2023-04-02T04:13:44.694Z,9.87
2023-04-02T04:16:18.133Z,6.65
2023-04-02T04:18:52.774Z,6.93
2023-04-02T04:21:30.266Z,7.75
2023-04-02T04:24:07.891Z,5.93
2023-04-02T04:26:42.746Z,8.80
2023-04-02T04:29:27.080Z,6.35
2023-04-02T04:31:56.894Z,9.82
2023-04-02T04:34:36.334Z,6.32
2023-04-02T04:37:07.903Z,8.65
2023-04-02T04:39:46.550Z,12.53
2023-04-02T04:42:21.922Z,6.03
2023-04-02T04:44:57.349Z,6.05
2023-04-02T04:47:31.081Z,4.93
2023-04-02T04:50:07.413Z,7.47
2023-04-02T04:52:40.950Z,5.77
2023-04-02T04:55:26.574Z,8.93
2023-04-02T04:57:57.691Z,5.07
2023-04-02T05:00:29.802Z,6.45
2023-04-02T05:03:04.784Z,7.38
2023-04-02T05:05:40.388Z,6.10
2023-04-02T05:08:15.170Z,10.13
2023-04-02T05:10:47.382Z,4.65
2023-04-02T05:13:19.826Z,7.25
2023-04-02T05:15:54.766Z,7.53
2023-04-02T05:18:29.409Z,6.37
2023-04-02T05:21:06.953Z,4.97
2023-04-02T05:23:39.199Z,5.40
2023-04-02T05:26:13.033Z,4.68
2023-04-02T05:28:47.227Z,6.57
2023-04-02T05:31:19.953Z,5.43
2023-04-02T05:33:50.774Z,3.38
2023-04-02T05:36:23.731Z,4.93
2023-04-02T05:38:57.920Z,5.35
2023-04-02T05:41:43.190Z,4.38
2023-04-02T05:44:17.881Z,3.27
2023-04-02T05:46:51.730Z,5.63
2023-04-02T05:49:27.703Z,8.05
2023-04-02T05:52:01.838Z,7.40
2023-04-02T05:54:35.122Z,9.63
2023-04-02T05:57:05.970Z,8.33
2023-04-02T05:59:39.489Z,4.03
2023-04-02T06:02:18.101Z,4.40
2023-04-02T06:04:54.412Z,3.97
2023-04-02T06:07:32.078Z,5.35
2023-04-02T06:10:08.454Z,4.67
2023-04-02T06:12:44.422Z,3.95
2023-04-02T06:15:15.151Z,5.68
2023-04-02T06:17:48.024Z,6.18
2023-04-02T06:20:18.266Z,5.75
2023-04-02T06:22:52.485Z,4.97
2023-04-02T06:25:25.106Z,5.47
2023-04-02T06:27:57.754Z,5.82
2023-04-02T06:30:29.501Z,5.07
2023-04-02T06:32:58.105Z,5.20
2023-04-02T06:35:28.129Z,4.73
2023-04-02T06:38:03.784Z,7.93
2023-04-02T06:40:40.328Z,7.72
2023-04-02T06:43:19.088Z,7.07
2023-04-02T06:46:21.157Z,4.10
2023-04-02T06:49:07.588Z,5.37
2023-04-02T06:51:38.017Z,4.18
2023-04-02T06:54:15.284Z,5.88
2023-04-02T06:56:47.496Z,6.57
2023-04-02T06:59:21.359Z,3.67
2023-04-02T07:01:53.090Z,4.10
2023-04-02T07:04:22.438Z,6.32
2023-04-02T07:06:53.346Z,4.78
2023-04-02T07:09:25.946Z,4.63
2023-04-02T07:11:56.960Z,2.88
2023-04-02T07:14:24.992Z,4.03
2023-04-02T07:16:52.846Z,9.57
2023-04-02T07:19:23.489Z,3.55
2023-04-02T07:21:57.434Z,5.13
2023-04-02T07:24:30.070Z,4.57
2023-04-02T07:26:58.104Z,6.43
2023-04-02T07:29:26.060Z,5.50
2023-04-02T07:31:54.172Z,6.18
2023-04-02T07:34:22.092Z,5.10
2023-04-02T07:36:50.390Z,4.28
2023-04-02T07:39:18.383Z,3.20
2023-04-02T07:41:55.209Z,4.18
2023-04-02T07:44:23.221Z,4.35
2023-04-02T07:46:51.728Z,5.70
2023-04-02T07:49:19.744Z,5.22
2023-04-02T07:51:47.781Z,3.10
2023-04-02T07:54:15.707Z,5.55
2023-04-02T07:56:43.738Z,5.65
2023-04-02T07:59:12.897Z,4.55
2023-04-02T08:01:42.879Z,6.30
2023-04-02T08:04:18.465Z,4.97
2023-04-02T08:06:47.096Z,5.38
2023-04-02T08:09:14.828Z,5.00
2023-04-02T08:11:42.755Z,5.13
2023-04-02T08:14:12.169Z,5.57
2023-04-02T08:16:51.433Z,6.13
2023-04-02T08:19:19.449Z,4.72
2023-04-02T08:21:50.652Z,6.22
2023-04-02T08:24:19.259Z,4.68
2023-04-02T08:26:47.803Z,5.90
2023-04-02T08:29:17.303Z,9.00
2023-04-02T08:31:45.269Z,3.22
2023-04-02T08:34:13.409Z,4.90
2023-04-02T08:36:44.448Z,4.60
2023-04-02T08:39:12.710Z,2.33
2023-04-02T08:41:46.014Z,3.80
2023-04-02T08:44:28.423Z,5.57
2023-04-02T08:47:01.309Z,5.43
2023-04-02T08:49:33.162Z,3.53
2023-04-02T08:52:01.654Z,4.43
2023-04-02T08:54:31.613Z,5.20
2023-04-02T08:57:05.626Z,4.38
2023-04-02T08:59:37.033Z,3.05
2023-04-02T09:02:30.797Z,5.15
2023-04-02T09:05:01.598Z,4.80
2023-04-02T09:07:29.613Z,5.73
2023-04-02T09:09:58.172Z,5.68
2023-04-02T09:12:29.765Z,4.30
2023-04-02T09:15:20.267Z,7.07
2023-04-02T09:17:54.048Z,5.10
2023-04-02T09:20:26.248Z,4.47
2023-04-02T09:22:56.837Z,3.60
2023-04-02T09:25:27.396Z,8.13
2023-04-02T09:27:58.046Z,4.50
2023-04-02T09:30:42.809Z,5.00
2023-04-02T09:33:11.421Z,3.87
2023-04-02T09:35:56.362Z,6.55
2023-04-02T09:38:28.934Z,4.38
2023-04-02T09:41:01.409Z,3.90
2023-04-02T09:43:31.610Z,4.57
2023-04-02T09:46:03.107Z,4.77
2023-04-02T09:48:33.871Z,4.55
2023-04-02T09:51:08.070Z,4.72
2023-04-02T09:53:36.919Z,6.35
2023-04-02T09:56:13.834Z,3.88
2023-04-02T09:58:44.104Z,4.50
2023-04-02T10:01:30.256Z,4.70
2023-04-02T10:04:00.048Z,5.95
2023-04-02T10:06:30.103Z,3.58
2023-04-02T10:08:58.505Z,7.18
2023-04-02T10:11:36.602Z,3.07
2023-04-02T10:14:18.746Z,8.05
2023-04-02T10:16:51.541Z,4.28
2023-04-02T10:19:27.533Z,3.10
2023-04-02T10:21:56.522Z,5.32
2023-04-02T10:24:27.923Z,3.23
2023-04-02T10:27:04.793Z,4.82
2023-04-02T10:29:48.919Z,4.43
2023-04-02T10:32:22.552Z,5.38
2023-04-02T10:34:58.482Z,4.85
2023-04-02T10:38:07.125Z,3.80
2023-04-02T10:40:37.456Z,3.83
2023-04-02T10:43:32.970Z,3.83
2023-04-02T10:46:03.445Z,3.88
2023-04-02T10:48:41.280Z,4.72
2023-04-02T10:51:16.794Z,3.50
2023-04-02T10:53:52.625Z,2.20
2023-04-02T10:56:21.565Z,3.38
2023-04-02T10:58:57.352Z,7.70
2023-04-02T11:01:29.333Z,5.60
2023-04-02T11:04:02.503Z,5.23
2023-04-02T11:06:33.985Z,6.30
2023-04-02T11:09:05.041Z,3.70
2023-04-02T11:11:39.694Z,2.95
2023-04-02T11:14:14.713Z,6.53
2023-04-02T11:16:44.819Z,5.30
2023-04-02T11:19:29.123Z,5.50
2023-04-02T11:22:01.339Z,5.63
2023-04-02T11:24:39.515Z,2.83
2023-04-02T11:27:16.812Z,4.10
2023-04-02T11:29:47.592Z,6.90
2023-04-02T11:32:39.419Z,3.85
2023-04-02T11:35:26.906Z,3.60
2023-04-02T11:37:56.421Z,4.15
2023-04-02T11:40:48.750Z,3.60
2023-04-02T11:43:48.708Z,2.43
2023-04-02T11:46:42.490Z,4.28
2023-04-02T11:49:38.063Z,5.13
2023-04-02T11:52:28.008Z,3.92
2023-04-02T11:54:58.211Z,3.33
2023-04-02T11:57:38.556Z,2.90
2023-04-02T12:00:22.545Z,4.45
2023-04-02T12:03:04.322Z,4.15
2023-04-02T12:05:42.926Z,4.50
2023-04-02T12:08:25.222Z,2.40
2023-04-02T12:10:57.272Z,4.83
2023-04-02T12:13:50.803Z,3.42
2023-04-02T12:16:19.096Z,5.93
2023-04-02T12:18:48.686Z,5.43
2023-04-02T12:21:18.245Z,2.28
2023-04-02T12:23:49.182Z,4.87
2023-04-02T12:26:37.636Z,3.65
2023-04-02T12:29:24.796Z,3.88
2023-04-02T12:31:53.572Z,2.78
2023-04-02T12:34:23.198Z,3.30
2023-04-02T12:37:02.569Z,2.47
2023-04-02T12:39:33.475Z,3.60
2023-04-02T12:42:01.424Z,2.88
2023-04-02T12:44:31.026Z,2.47
2023-04-02T12:46:59.955Z,3.83
2023-04-02T12:49:36.824Z,4.53
2023-04-02T12:52:07.078Z,3.45
2023-04-02T12:54:39.622Z,2.92
2023-04-02T12:57:23.095Z,4.38
2023-04-02T12:59:51.037Z,3.28
2023-04-02T13:02:21.048Z,3.57
2023-04-02T13:04:50.157Z,5.38
2023-04-02T13:07:19.288Z,4.30
2023-04-02T13:09:50.050Z,2.70
2023-04-02T13:12:30.792Z,2.83
2023-04-02T13:15:00.256Z,4.30
2023-04-02T13:17:39.161Z,2.63
2023-04-02T13:20:29.793Z,5.13
2023-04-02T13:22:57.793Z,3.28
2023-04-02T13:25:31.154Z,3.60
2023-04-02T13:27:59.394Z,5.63
2023-04-02T13:30:29.088Z,1.63
2023-04-02T13:32:57.019Z,4.68
2023-04-02T13:35:24.858Z,4.68
2023-04-02T13:37:52.843Z,2.97
2023-04-02T13:40:20.811Z,2.50
2023-04-02T13:42:50.611Z,3.35
2023-04-02T13:45:24.756Z,3.35
2023-04-02T13:47:53.286Z,2.50
2023-04-02T13:50:23.078Z,2.08
2023-04-02T13:52:52.811Z,3.57
2023-04-02T13:55:23.692Z,3.33
2023-04-02T13:57:52.941Z,2.70
2023-04-02T14:00:21.512Z,1.60
2023-04-02T14:02:54.487Z,5.93
2023-04-02T14:05:32.876Z,2.93
2023-04-02T14:08:10.112Z,5.07
2023-04-02T14:10:54.560Z,2.97
2023-04-02T14:13:39.373Z,4.20
2023-04-02T14:16:20.669Z,2.97
2023-04-02T14:19:02.318Z,3.10
2023-04-02T14:21:41.415Z,5.65
2023-04-02T14:24:18.462Z,2.53
2023-04-02T14:27:07.320Z,3.95
2023-04-02T14:29:45.776Z,2.50
2023-04-02T14:32:20.172Z,3.43
2023-04-02T14:34:56.684Z,3.97
2023-04-02T14:37:34.499Z,3.60
2023-04-02T14:40:11.873Z,3.90
2023-04-02T14:42:44.878Z,2.53
2023-04-02T14:45:31.641Z,5.23
2023-04-02T14:48:04.394Z,3.95
2023-04-02T14:50:39.023Z,3.45
2023-04-02T14:53:13.161Z,6.00
2023-04-02T14:55:44.373Z,4.40
2023-04-02T14:58:21.365Z,1.60
2023-04-02T15:00:57.720Z,3.30
2023-04-02T15:03:29.975Z,4.18
2023-04-02T15:06:00.738Z,3.05
2023-04-02T15:08:31.841Z,4.72
2023-04-02T15:11:08.026Z,2.43
2023-04-02T15:13:39.333Z,1.92
2023-04-02T15:16:15.001Z,3.85
2023-04-02T15:18:43.218Z,2.38
2023-04-02T15:21:30.387Z,3.63
2023-04-02T15:24:05.356Z,6.53
2023-04-02T15:26:43.893Z,5.93
2023-04-02T15:29:28.667Z,6.40
2023-04-02T15:32:16.617Z,2.05
2023-04-02T15:34:48.357Z,3.65
2023-04-02T15:37:24.683Z,5.30
2023-04-02T15:40:02.100Z,2.92
2023-04-02T15:42:31.991Z,4.82
2023-04-02T15:45:22.706Z,2.55
2023-04-02T15:48:06.329Z,5.05
2023-04-02T15:50:45.953Z,5.57
2023-04-02T15:53:31.682Z,5.03
2023-04-02T15:56:16.689Z,3.42
2023-04-02T15:58:58.178Z,5.43
2023-04-02T16:01:36.494Z,1.95
2023-04-02T16:04:29.649Z,3.40
2023-04-02T16:07:10.127Z,2.22
2023-04-02T16:09:46.513Z,4.00
2023-04-02T16:12:16.857Z,2.10
2023-04-02T16:14:48.058Z,3.85
2023-04-02T16:17:24.930Z,6.70
2023-04-02T16:20:02.413Z,4.53
2023-04-02T16:22:33.246Z,3.67
2023-04-02T16:25:03.442Z,3.13
2023-04-02T16:27:36.612Z,3.58
2023-04-02T16:30:30.551Z,4.27
2023-04-02T16:33:08.645Z,3.35
2023-04-02T16:35:46.458Z,4.90
2023-04-02T16:38:31.831Z,3.05
2023-04-02T16:41:09.232Z,5.13
2023-04-02T16:43:48.729Z,3.90
2023-04-02T16:46:36.251Z,2.88
2023-04-02T16:49:20.042Z,4.43
2023-04-02T16:51:57.667Z,3.25
2023-04-02T16:54:32.393Z,3.22
2023-04-02T16:57:16.078Z,2.57
2023-04-02T16:59:54.503Z,1.83
2023-04-02T17:02:32.347Z,3.58
2023-04-02T17:05:12.545Z,3.50
2023-04-02T17:07:45.933Z,4.72
2023-04-02T17:10:27.321Z,4.33
2023-04-02T17:13:03.952Z,3.30
2023-04-02T17:15:38.007Z,4.70
2023-04-02T17:18:14.684Z,3.72
2023-04-02T17:20:42.647Z,4.07
2023-04-02T17:23:14.597Z,3.73
2023-04-02T17:25:49.160Z,5.78
2023-04-02T17:28:25.254Z,4.60
2023-04-02T17:30:56.593Z,4.13
2023-04-02T17:33:26.888Z,5.15
2023-04-02T17:36:23.059Z,3.03
2023-04-02T17:39:00.972Z,3.30
2023-04-02T17:41:34.930Z,3.80
2023-04-02T17:44:08.449Z,5.38
2023-04-02T17:46:40.149Z,5.18
2023-04-02T17:49:16.613Z,7.27
2023-04-02T17:51:50.117Z,4.88
2023-04-02T17:54:31.805Z,4.55
2023-04-02T17:57:18.265Z,4.20
2023-04-02T18:00:02.035Z,2.90
2023-04-02T18:03:05.950Z,3.90
2023-04-02T18:05:39.849Z,5.32
2023-04-02T18:08:18.667Z,3.90
2023-04-02T18:11:00.465Z,3.78
2023-04-02T18:13:34.952Z,6.88
2023-04-02T18:16:18.169Z,3.93
2023-04-02T18:18:57.376Z,2.28
2023-04-02T18:21:30.877Z,2.33
2023-04-02T18:24:15.920Z,3.83
2023-04-02T18:26:52.794Z,2.95
2023-04-02T18:29:30.838Z,2.00
2023-04-02T18:32:10.521Z,4.25
2023-04-02T18:34:52.174Z,4.00
2023-04-02T18:37:29.621Z,1.92
2023-04-02T18:40:14.065Z,4.95
2023-04-02T18:42:51.012Z,3.57
2023-04-02T18:45:23.253Z,3.60
2023-04-02T18:48:00.580Z,3.47
2023-04-02T18:50:31.663Z,3.53
2023-04-02T18:52:59.590Z,3.08
2023-04-02T18:55:29.982Z,3.83
2023-04-02T18:58:03.244Z,3.92
2023-04-02T19:00:34.394Z,2.92
2023-04-02T19:03:08.321Z,3.92
2023-04-02T19:05:44.417Z,3.45
2023-04-02T19:08:18.037Z,4.80
2023-04-02T19:10:48.427Z,4.18
2023-04-02T19:13:20.017Z,3.95
2023-04-02T19:15:59.508Z,5.22
2023-04-02T19:18:49.332Z,2.42
2023-04-02T19:21:27.268Z,2.27
2023-04-02T19:24:12.337Z,3.15
2023-04-02T19:26:47.837Z,4.32
2023-04-02T19:29:28.699Z,3.95
2023-04-02T19:32:04.956Z,4.35
2023-04-02T19:34:40.848Z,3.50
2023-04-02T19:37:15.593Z,4.18
2023-04-02T19:40:09.326Z,5.10
2023-04-02T19:42:45.672Z,6.70
2023-04-02T19:45:27.949Z,6.00
2023-04-02T19:47:57.339Z,3.87
2023-04-02T19:50:25.462Z,5.40
2023-04-02T19:52:53.405Z,3.63
2023-04-02T19:55:21.247Z,4.43
2023-04-02T19:57:49.102Z,4.85
2023-04-02T20:00:17.735Z,3.10
2023-04-02T20:02:46.966Z,4.72
2023-04-02T20:05:15.012Z,5.60
2023-04-02T20:07:42.864Z,4.72
2023-04-02T20:10:11.617Z,5.47
2023-04-02T20:12:39.464Z,4.73
2023-04-02T20:15:08.656Z,8.18
2023-04-02T20:17:36.620Z,3.40
2023-04-02T20:20:06.572Z,7.75
2023-04-02T20:22:34.394Z,5.95
2023-04-02T20:25:02.148Z,5.00
2023-04-02T20:27:29.907Z,4.20
2023-04-02T20:29:57.699Z,4.03
2023-04-02T20:32:25.606Z,5.90
2023-04-02T20:34:54.262Z,7.47
2023-04-02T20:37:23.628Z,4.40
2023-04-02T20:39:51.998Z,4.40
2023-04-02T20:42:19.974Z,6.90
2023-04-02T20:44:47.754Z,3.85
2023-04-02T20:47:15.611Z,2.80
2023-04-02T20:49:43.333Z,5.33
2023-04-02T20:52:11.534Z,3.58
2023-04-02T20:54:40.663Z,4.75
2023-04-02T20:57:08.494Z,2.97
2023-04-02T20:59:36.288Z,2.95
2023-04-02T21:02:04.053Z,6.17
2023-04-02T21:04:31.851Z,3.05
2023-04-02T21:06:59.673Z,6.55
2023-04-02T21:09:27.490Z,4.22
2023-04-02T21:11:56.610Z,7.03
2023-04-02T21:14:24.392Z,4.87
2023-04-02T21:16:52.186Z,4.10
2023-04-02T21:19:20.054Z,2.97
2023-04-02T21:21:47.845Z,3.65
2023-04-02T21:24:15.560Z,3.15
2023-04-02T21:26:43.325Z,2.93
2023-04-02T21:29:13.860Z,4.38
2023-04-02T21:31:42.229Z,2.83
2023-04-02T21:34:13.805Z,2.55
2023-04-02T21:36:43.331Z,4.20
2023-04-02T21:39:12.765Z,2.17
2023-04-02T21:41:42.149Z,3.22
2023-04-02T21:44:13.527Z,3.70
2023-04-02T21:46:43.493Z,2.72
2023-04-02T21:49:12.864Z,1.83
2023-04-02T21:51:42.427Z,3.77
2023-04-02T21:54:10.543Z,5.18
2023-04-02T21:56:39.898Z,3.55
2023-04-02T21:59:09.127Z,1.73
2023-04-02T22:01:38.745Z,2.80
2023-04-02T22:04:09.755Z,2.57
2023-04-02T22:06:39.005Z,3.28
2023-04-02T22:09:10.441Z,5.20
2023-04-02T22:11:40.685Z,4.00
2023-04-02T22:14:08.935Z,4.05
2023-04-02T22:16:37.885Z,2.33
2023-04-02T22:19:08.973Z,3.08
2023-04-02T22:21:38.265Z,3.10
2023-04-02T22:24:09.442Z,4.95
2023-04-02T22:26:37.427Z,4.85
2023-04-02T22:29:05.916Z,3.40
2023-04-02T22:31:35.028Z,2.45
2023-04-02T22:34:04.668Z,2.15
2023-04-02T22:36:35.152Z,2.38
2023-04-02T22:39:05.397Z,3.20
2023-04-02T22:41:33.792Z,3.73
2023-04-02T22:44:02.864Z,3.17
2023-04-02T22:46:31.454Z,3.22
2023-04-02T22:48:59.434Z,3.30
2023-04-02T22:51:28.644Z,3.40
2023-04-02T22:53:58.000Z,4.90
2023-04-02T22:56:28.547Z,7.22
2023-04-02T22:58:56.418Z,3.80
2023-04-02T23:01:27.072Z,3.60
2023-04-02T23:03:55.941Z,3.90
2023-04-02T23:06:25.443Z,3.50
2023-04-02T23:08:53.295Z,4.45
2023-04-02T23:11:24.193Z,6.10
2023-04-02T23:13:53.697Z,5.50
2023-04-02T23:16:22.722Z,3.03
2023-04-02T23:18:51.480Z,4.80
2023-04-02T23:21:20.961Z,2.80
2023-04-02T23:23:50.429Z,5.82
2023-04-02T23:26:21.098Z,3.90
2023-04-02T23:28:50.756Z,4.25
2023-04-02T23:31:20.932Z,4.30
2023-04-02T23:33:49.423Z,3.55
2023-04-02T23:36:21.657Z,2.45
2023-04-02T23:38:49.570Z,3.22
2023-04-02T23:41:18.202Z,5.53
2023-04-02T23:43:46.070Z,5.13
2023-04-02T23:46:15.449Z,3.83
2023-04-02T23:48:44.526Z,4.30
2023-04-02T23:51:12.692Z,4.35
2023-04-02T23:53:40.845Z,3.78
2023-04-02T23:56:08.842Z,4.30
2023-04-02T23:58:37.081Z,4.60
